Time;durP1;ratioP1;P1;durP2;ratioP2;P2;SDS_P1;SDS_P2;PMS_P1;PMS_P2;Temp;Humidity;BMP_temperature;BMP_pressure;BME280_temperature;BME280_humidity;BME280_pressure;Samples;Min_cycle;Max_cycle;Signal;HPM_P1;HPM_P2
2023/08/21 00:02:28;;;;;;;10.48;9.32;;;28.30;82.40;;;;;;6100727;28;83087;-59
2023/08/21 00:05:28;;;;;;;10.82;9.73;;;28.30;82.10;;;;;;6116106;28;82843;-69
2023/08/21 00:08:29;;;;;;;12.05;9.52;;;28.20;81.70;;;;;;6115049;28;80567;-68
2023/08/21 00:11:29;;;;;;;17.58;10.23;;;28.20;81.70;;;;;;6126914;28;80181;-68
2023/08/21 00:14:30;;;;;;;11.00;9.90;;;28.20;82.20;;;;;;6122035;28;84267;-67
2023/08/21 00:17:30;;;;;;;11.40;10.13;;;28.30;81.40;;;;;;6114700;28;83923;-68
2023/08/21 00:20:31;;;;;;;11.13;10.02;;;28.20;81.70;;;;;;6112583;28;82857;-68
2023/08/21 00:23:31;;;;;;;10.23;9.10;;;28.30;81.70;;;;;;6100503;28;83250;-67
2023/08/21 00:26:32;;;;;;;11.18;9.95;;;28.20;81.90;;;;;;6103895;28;83345;-67
2023/08/21 00:29:32;;;;;;;11.25;10.10;;;28.20;81.70;;;;;;6124997;28;81137;-66
2023/08/21 00:32:33;;;;;;;10.43;9.35;;;28.20;81.70;;;;;;6135532;28;83902;-66
2023/08/21 00:35:33;;;;;;;11.45;10.20;;;28.20;81.90;;;;;;6135616;28;85768;-64
2023/08/21 00:38:34;;;;;;;11.57;10.38;;;28.20;81.70;;;;;;6113090;28;83315;-62
2023/08/21 00:41:34;;;;;;;10.90;9.80;;;28.20;81.90;;;;;;6124302;28;83110;-63
2023/08/21 00:44:35;;;;;;;14.15;9.95;;;28.20;81.70;;;;;;6140077;28;83536;-66
2023/08/21 00:47:35;;;;;;;11.88;10.27;;;28.20;82.10;;;;;;6126898;28;83099;-67
2023/08/21 00:50:36;;;;;;;12.60;10.15;;;28.30;81.80;;;;;;6134477;28;84900;-68
2023/08/21 00:53:36;;;;;;;14.18;9.82;;;28.30;81.70;;;;;;6125909;28;85035;-66
2023/08/21 00:56:37;;;;;;;11.45;10.32;;;28.20;81.30;;;;;;6139130;28;82352;-68
2023/08/21 00:59:38;;;;;;;11.85;10.55;;;28.20;80.80;;;;;;6120048;28;83297;-68
2023/08/21 01:02:38;;;;;;;12.27;9.75;;;28.20;80.80;;;;;;6120264;28;83784;-68
2023/08/21 01:05:39;;;;;;;12.15;10.88;;;28.20;80.40;;;;;;6122369;28;86076;-63
2023/08/21 01:08:39;;;;;;;12.73;11.20;;;28.20;80.50;;;;;;6120074;28;83357;-62
2023/08/21 01:11:40;;;;;;;11.10;9.93;;;28.20;80.80;;;;;;6132355;28;85440;-61
2023/08/21 01:14:40;;;;;;;12.38;9.90;;;28.20;80.40;;;;;;6122178;28;83026;-65
2023/08/21 01:17:41;;;;;;;13.45;11.52;;;28.20;80.20;;;;;;6138792;28;80455;-59
2023/08/21 01:20:41;;;;;;;11.85;10.55;;;28.20;80.20;;;;;;6133606;28;82972;-59
2023/08/21 01:23:43;;;;;;;10.90;9.80;;;28.20;80.50;;;;;;6115909;28;83744;-58
2023/08/21 01:26:44;;;;;;;12.10;10.30;;;28.20;80.40;;;;;;6114739;28;84622;-59
2023/08/21 01:29:44;;;;;;;11.32;9.95;;;28.20;80.90;;;;;;6125210;28;83105;-60
2023/08/21 01:32:45;;;;;;;11.60;10.45;;;28.20;81.10;;;;;;6119176;28;83532;-62
2023/08/21 01:35:45;;;;;;;11.45;10.10;;;28.20;80.30;;;;;;6130172;28;83567;-58
2023/08/21 01:38:46;;;;;;;11.55;9.85;;;28.20;80.30;;;;;;6124073;28;83380;-60
2023/08/21 01:41:46;;;;;;;11.23;10.02;;;28.20;80.60;;;;;;6129456;28;81796;-60
2023/08/21 01:44:47;;;;;;;10.95;9.82;;;28.20;81.00;;;;;;6126815;28;83156;-59
2023/08/21 01:47:47;;;;;;;11.68;10.00;;;28.20;81.00;;;;;;6129463;28;82886;-60
2023/08/21 01:50:48;;;;;;;10.85;9.73;;;28.20;81.00;;;;;;6126538;28;83150;-59
2023/08/21 01:53:48;;;;;;;13.27;9.93;;;28.20;81.10;;;;;;6128133;28;86040;-60
2023/08/21 01:56:49;;;;;;;12.20;10.60;;;28.20;80.90;;;;;;6114451;28;82032;-60
2023/08/21 01:59:49;;;;;;;29.58;11.43;;;28.20;80.60;;;;;;6124667;28;83714;-60
2023/08/21 02:02:51;;;;;;;11.35;10.15;;;28.20;80.60;;;;;;6110089;28;83835;-59
2023/08/21 02:05:51;;;;;;;13.23;9.82;;;28.20;80.70;;;;;;6121843;28;83690;-59
2023/08/21 02:08:52;;;;;;;11.52;10.05;;;28.20;80.20;;;;;;6125949;28;86434;-60
2023/08/21 02:11:53;;;;;;;14.63;11.07;;;28.20;80.40;;;;;;6125847;28;82918;-59
2023/08/21 02:14:53;;;;;;;11.60;10.13;;;28.20;80.40;;;;;;6114017;28;85180;-61
2023/08/21 02:17:54;;;;;;;13.15;9.80;;;28.30;80.60;;;;;;6106815;28;85026;-62
2023/08/21 02:20:55;;;;;;;12.05;10.85;;;28.20;80.50;;;;;;6132072;28;81848;-61
2023/08/21 02:23:55;;;;;;;14.77;10.10;;;28.20;80.60;;;;;;6156367;28;83703;-60
2023/08/21 02:26:56;;;;;;;15.00;10.30;;;28.20;79.80;;;;;;6125592;28;83323;-60
2023/08/21 02:29:57;;;;;;;11.40;10.02;;;28.20;79.90;;;;;;6121787;28;84049;-61
2023/08/21 02:32:57;;;;;;;11.27;10.13;;;28.20;79.60;;;;;;6151710;28;85340;-66
2023/08/21 02:35:58;;;;;;;11.35;10.20;;;28.20;79.40;;;;;;6148102;28;84627;-66
2023/08/21 02:38:59;;;;;;;13.30;10.50;;;28.20;79.40;;;;;;6132105;28;85155;-66
2023/08/21 02:41:59;;;;;;;11.52;10.23;;;28.20;79.50;;;;;;6131833;28;83604;-65
2023/08/21 02:45:03;;;;;;;16.83;10.02;;;28.30;79.30;;;;;;6132212;28;82816;-66
2023/08/21 02:48:04;;;;;;;11.73;10.52;;;28.20;78.90;;;;;;6124186;28;84871;-66
2023/08/21 02:51:04;;;;;;;10.98;9.88;;;28.20;79.00;;;;;;6122185;28;84896;-67
2023/08/21 02:54:05;;;;;;;10.45;9.20;;;28.20;78.80;;;;;;6109445;28;83532;-64
2023/08/21 02:57:05;;;;;;;11.40;10.25;;;28.20;79.10;;;;;;6129109;28;80845;-65
2023/08/21 03:00:08;;;;;;;10.68;9.57;;;28.20;78.90;;;;;;6113630;28;83081;-68
2023/08/21 03:03:08;;;;;;;11.88;9.73;;;28.30;78.80;;;;;;6122542;28;81638;-67
2023/08/21 03:06:09;;;;;;;12.65;10.93;;;28.30;78.80;;;;;;6135879;28;87511;-66
2023/08/21 03:09:09;;;;;;;11.65;9.63;;;28.30;78.30;;;;;;6135622;28;83129;-59
2023/08/21 03:12:10;;;;;;;10.60;9.57;;;28.20;78.30;;;;;;6126438;28;85903;-59
2023/08/21 03:15:10;;;;;;;12.25;10.70;;;28.20;78.40;;;;;;6128438;28;80852;-60
2023/08/21 03:18:11;;;;;;;11.18;10.00;;;28.20;78.20;;;;;;6125033;28;83086;-60
2023/08/21 03:21:12;;;;;;;11.95;10.45;;;28.20;77.90;;;;;;6135146;28;86424;-60
2023/08/21 03:24:12;;;;;;;11.65;10.45;;;28.20;77.90;;;;;;6122861;28;84746;-59
2023/08/21 03:27:13;;;;;;;11.45;10.30;;;28.20;77.80;;;;;;6123589;28;85581;-59
2023/08/21 03:30:14;;;;;;;11.70;10.30;;;28.10;77.70;;;;;;6121340;28;85641;-60
2023/08/21 03:33:15;;;;;;;10.73;9.57;;;28.20;77.80;;;;;;6122021;28;91024;-62
2023/08/21 03:36:16;;;;;;;12.75;11.38;;;28.20;77.80;;;;;;6144168;28;86114;-63
2023/08/21 03:39:16;;;;;;;12.60;11.15;;;28.20;78.00;;;;;;6143742;28;84806;-60
2023/08/21 03:42:19;;;;;;;13.13;10.05;;;28.20;77.90;;;;;;6118916;28;86289;-60
2023/08/21 03:45:20;;;;;;;11.63;10.52;;;28.20;78.30;;;;;;6120773;28;83268;-63
2023/08/21 03:48:21;;;;;;;12.07;10.88;;;28.20;77.70;;;;;;6125072;28;85890;-63
2023/08/21 03:51:21;;;;;;;12.50;11.20;;;28.20;77.70;;;;;;6117064;28;83104;-66
2023/08/21 03:54:22;;;;;;;11.30;10.15;;;28.20;77.70;;;;;;6123409;28;86101;-65
2023/08/21 03:57:22;;;;;;;12.20;10.48;;;28.20;77.70;;;;;;6124974;28;83875;-64
2023/08/21 04:00:23;;;;;;;12.00;10.77;;;28.20;77.70;;;;;;6124608;28;85788;-65
2023/08/21 04:03:25;;;;;;;12.20;9.73;;;28.20;77.30;;;;;;6139103;28;86263;-64
2023/08/21 04:06:25;;;;;;;11.57;10.48;;;28.20;77.00;;;;;;6126991;28;82892;-65
2023/08/21 04:09:26;;;;;;;12.80;11.02;;;28.20;76.90;;;;;;6126874;28;82973;-65
2023/08/21 04:12:26;;;;;;;13.20;10.93;;;28.20;76.80;;;;;;6120824;28;84190;-63
2023/08/21 04:15:27;;;;;;;12.65;10.70;;;28.20;76.80;;;;;;6100306;28;83886;-63
2023/08/21 04:18:27;;;;;;;13.20;11.02;;;28.20;77.00;;;;;;6106551;28;84037;-62
2023/08/21 04:21:28;;;;;;;12.20;10.90;;;28.20;77.10;;;;;;6111043;28;85549;-66
2023/08/21 04:24:29;;;;;;;11.98;10.68;;;28.20;77.00;;;;;;6114611;28;83491;-66
2023/08/21 04:27:29;;;;;;;10.38;9.38;;;28.20;77.20;;;;;;6112123;28;84608;-67
2023/08/21 04:30:30;;;;;;;12.35;10.70;;;28.20;77.30;;;;;;6132983;28;84889;-66
2023/08/21 04:33:31;;;;;;;11.70;10.07;;;28.20;77.10;;;;;;6124924;28;83060;-66
2023/08/21 04:36:31;;;;;;;13.23;9.75;;;28.20;77.10;;;;;;6121904;28;86052;-69
2023/08/21 04:39:33;;;;;;;10.85;9.75;;;28.20;77.00;;;;;;6141991;28;85972;-63
2023/08/21 04:42:33;;;;;;;12.82;10.18;;;28.20;76.90;;;;;;6142238;28;81775;-62
2023/08/21 04:45:34;;;;;;;12.30;10.90;;;28.20;76.30;;;;;;6104219;28;83770;-62
2023/08/21 04:48:34;;;;;;;11.77;10.60;;;28.20;75.90;;;;;;6114395;28;83368;-65
2023/08/21 04:51:36;;;;;;;15.45;10.98;;;28.20;75.40;;;;;;6117925;28;86046;-61
2023/08/21 04:54:37;;;;;;;11.80;10.40;;;28.20;75.50;;;;;;6125400;28;84257;-59
2023/08/21 04:57:38;;;;;;;12.15;10.18;;;28.20;75.50;;;;;;6117457;28;84572;-58
2023/08/21 05:00:42;;;;;;;13.57;11.70;;;28.20;75.20;;;;;;6111716;28;85924;-60
2023/08/21 05:03:42;;;;;;;11.63;10.38;;;28.20;75.50;;;;;;6117426;28;85998;-59
2023/08/21 05:06:43;;;;;;;12.90;10.07;;;28.20;75.40;;;;;;6125721;28;86732;-60
2023/08/21 05:09:44;;;;;;;13.63;10.02;;;28.20;75.60;;;;;;6126294;28;84912;-59
2023/08/21 05:12:46;;;;;;;11.15;9.95;;;28.20;75.70;;;;;;6114375;28;85850;-58
2023/08/21 05:15:47;;;;;;;13.80;9.93;;;28.20;75.60;;;;;;6134176;28;85343;-66
2023/08/21 05:18:47;;;;;;;13.35;9.38;;;28.20;75.70;;;;;;6141623;28;83442;-66
2023/08/21 05:21:49;;;;;;;11.15;9.95;;;28.20;75.50;;;;;;6144065;28;82953;-67
2023/08/21 05:24:50;;;;;;;13.65;10.77;;;28.20;75.40;;;;;;6124700;28;82768;-67
2023/08/21 05:27:51;;;;;;;11.50;9.98;;;28.20;75.50;;;;;;6128949;28;83124;-67
2023/08/21 05:30:52;;;;;;;12.43;10.80;;;28.20;75.60;;;;;;6125766;28;83250;-68
2023/08/21 05:33:54;;;;;;;12.35;10.70;;;28.20;75.90;;;;;;6107848;28;86610;-71
2023/08/21 05:36:55;;;;;;;12.05;10.60;;;28.20;76.00;;;;;;6133301;28;86060;-66
2023/08/21 05:39:56;;;;;;;13.45;9.63;;;28.20;76.00;;;;;;6126370;28;85487;-71
2023/08/21 05:42:57;;;;;;;11.88;10.68;;;28.20;75.90;;;;;;6148528;28;86136;-71
2023/08/21 05:45:58;;;;;;;12.32;11.02;;;28.10;75.90;;;;;;6135364;28;82745;-73
2023/08/21 05:48:58;;;;;;;13.30;10.77;;;28.20;75.80;;;;;;6120002;28;86016;-66
2023/08/21 05:51:59;;;;;;;11.70;10.50;;;28.20;75.50;;;;;;6054293;28;85763;-67
2023/08/21 05:54:59;;;;;;;11.07;9.88;;;28.20;75.70;;;;;;6006398;28;86207;-65
2023/08/21 05:58:00;;;;;;;12.73;10.48;;;28.20;75.70;;;;;;6120613;28;82862;-65
2023/08/21 06:01:01;;;;;;;12.88;10.15;;;28.20;75.80;;;;;;6121707;28;83467;-67
2023/08/21 06:04:02;;;;;;;17.02;10.63;;;28.20;76.10;;;;;;6119012;28;85022;-67
2023/08/21 06:07:16;;;;;;;11.30;9.80;;;28.30;76.20;;;;;;6135091;28;90458;-67
2023/08/21 06:10:16;;;;;;;21.55;10.98;;;28.20;76.40;;;;;;6131480;28;85907;-64
2023/08/21 06:13:17;;;;;;;12.52;10.45;;;28.30;76.70;;;;;;6128458;28;83636;-68
2023/08/21 06:16:19;;;;;;;17.40;10.43;;;28.30;77.20;;;;;;6122738;28;85908;-66
2023/08/21 06:19:22;;;;;;;15.48;10.15;;;28.30;77.80;;;;;;6119705;28;84751;-66
2023/08/21 06:22:22;;;;;;;12.77;10.88;;;28.40;77.90;;;;;;6119883;28;85428;-65
2023/08/21 06:25:23;;;;;;;15.05;10.07;;;28.40;78.10;;;;;;6122970;28;85844;-64
2023/08/21 06:28:23;;;;;;;13.38;10.07;;;28.40;78.00;;;;;;6119534;28;85151;-68
2023/08/21 06:31:24;;;;;;;21.70;10.02;;;28.50;78.10;;;;;;6116268;28;84353;-67
2023/08/21 06:34:25;;;;;;;19.85;10.57;;;28.50;78.10;;;;;;6108947;28;85900;-62
2023/08/21 06:37:25;;;;;;;14.98;10.63;;;28.50;78.30;;;;;;6131273;28;84972;-62
2023/08/21 06:40:26;;;;;;;23.85;11.15;;;28.50;78.60;;;;;;6126261;28;86235;-63
2023/08/21 06:43:26;;;;;;;20.75;10.85;;;28.60;79.00;;;;;;6123636;28;85191;-63
2023/08/21 06:46:29;;;;;;;33.53;11.40;;;28.60;79.00;;;;;;6136740;28;85089;-63
2023/08/21 06:49:31;;;;;;;13.63;10.15;;;28.50;78.30;;;;;;6123793;28;86174;-62
2023/08/21 06:52:31;;;;;;;16.35;10.40;;;28.50;78.10;;;;;;6122723;28;83988;-60
2023/08/21 06:55:32;;;;;;;19.25;10.50;;;28.60;78.40;;;;;;6137215;28;84630;-60
2023/08/21 06:58:32;;;;;;;12.25;10.13;;;28.50;78.60;;;;;;6121347;28;83151;-61
2023/08/21 07:01:33;;;;;;;18.48;10.25;;;28.60;79.20;;;;;;6125215;28;83256;-61
2023/08/21 07:04:33;;;;;;;14.25;10.38;;;28.60;79.40;;;;;;6123702;28;83204;-69
2023/08/21 07:07:34;;;;;;;13.82;10.68;;;28.60;79.30;;;;;;6120465;28;85056;-70
2023/08/21 07:10:34;;;;;;;19.90;10.43;;;28.60;78.60;;;;;;6111895;28;84655;-60
2023/08/21 07:13:35;;;;;;;12.20;10.73;;;28.60;79.00;;;;;;6122323;28;83496;-66
2023/08/21 07:16:35;;;;;;;13.60;9.63;;;28.60;79.20;;;;;;6128540;28;83727;-61
2023/08/21 07:19:36;;;;;;;17.08;10.23;;;28.70;79.30;;;;;;6134824;28;81838;-63
2023/08/21 07:22:37;;;;;;;16.77;10.48;;;28.70;80.40;;;;;;6114808;28;85283;-66
2023/08/21 07:25:37;;;;;;;18.13;10.63;;;28.70;80.80;;;;;;6115328;28;83087;-66
2023/08/21 07:28:38;;;;;;;15.45;10.70;;;28.70;79.50;;;;;;6123962;28;84043;-66
2023/08/21 07:31:38;;;;;;;12.77;10.75;;;28.70;79.20;;;;;;6118820;28;83222;-63
2023/08/21 07:34:39;;;;;;;21.17;14.43;;;28.70;80.10;;;;;;6134074;28;85083;-62
2023/08/21 07:37:41;;;;;;;18.40;13.23;;;28.70;79.20;;;;;;6105228;28;84802;-62
2023/08/21 07:40:41;;;;;;;36.47;15.57;;;28.70;79.10;;;;;;6101508;28;84093;-61
2023/08/21 07:43:42;;;;;;;82.05;29.80;;;28.70;79.80;;;;;;6108135;28;83519;-63
2023/08/21 07:46:42;;;;;;;112.00;38.55;;;28.70;80.20;;;;;;6111107;28;83878;-58
2023/08/21 07:49:43;;;;;;;93.05;34.67;;;28.70;80.10;;;;;;6111646;28;83357;-61
2023/08/21 07:52:43;;;;;;;83.45;31.88;;;28.70;80.20;;;;;;6122718;28;83931;-61
2023/08/21 07:55:44;;;;;;;67.78;27.65;;;28.70;80.40;;;;;;6102921;28;83045;-59
2023/08/21 07:58:44;;;;;;;56.95;27.23;;;28.70;79.80;;;;;;6103173;28;83088;-59
2023/08/21 08:01:45;;;;;;;62.30;27.02;;;28.70;80.40;;;;;;6103989;28;83675;-68
2023/08/21 08:04:45;;;;;;;61.05;24.50;;;28.70;81.00;;;;;;6113615;28;83190;-65
2023/08/21 08:07:46;;;;;;;51.50;23.63;;;28.70;81.60;;;;;;6111050;28;83686;-59
2023/08/21 08:10:47;;;;;;;40.38;20.33;;;28.80;81.60;;;;;;6113729;28;82958;-64
2023/08/21 08:13:47;;;;;;;42.30;19.98;;;28.80;81.90;;;;;;6110673;28;84481;-65
2023/08/21 08:16:48;;;;;;;43.38;20.30;;;28.80;82.20;;;;;;6127769;28;83382;-64
2023/08/21 08:19:48;;;;;;;31.13;17.85;;;28.80;81.30;;;;;;6125724;28;83155;-62
2023/08/21 08:22:49;;;;;;;17.08;13.65;;;28.80;79.40;;;;;;6108246;28;86177;-66
2023/08/21 08:25:49;;;;;;;21.17;13.45;;;28.70;74.00;;;;;;6107586;28;85341;-63
2023/08/21 08:28:50;;;;;;;15.98;12.25;;;28.60;74.10;;;;;;6127951;28;83152;-64
2023/08/21 08:31:50;;;;;;;15.60;13.27;;;28.60;74.20;;;;;;6109757;28;82938;-62
2023/08/21 08:34:51;;;;;;;19.02;12.68;;;28.60;75.40;;;;;;6120512;28;86487;-62
2023/08/21 08:37:51;;;;;;;15.80;13.23;;;28.70;75.90;;;;;;6108743;28;83108;-61
2023/08/21 08:40:52;;;;;;;17.70;13.73;;;28.70;75.50;;;;;;6122704;28;83662;-64
2023/08/21 08:43:52;;;;;;;25.02;13.85;;;28.70;75.10;;;;;;6115270;28;84103;-60
2023/08/21 08:46:53;;;;;;;16.95;12.68;;;28.70;75.40;;;;;;6118458;28;84597;-64
2023/08/21 08:49:54;;;;;;;15.65;13.50;;;28.70;75.70;;;;;;6110141;28;83488;-64
2023/08/21 08:52:54;;;;;;;24.10;14.52;;;28.70;75.50;;;;;;6115345;28;83306;-63
2023/08/21 08:55:55;;;;;;;22.92;13.90;;;28.80;75.40;;;;;;6112425;28;83375;-66
2023/08/21 08:58:55;;;;;;;24.60;15.25;;;28.80;76.00;;;;;;6116063;28;90320;-74
2023/08/21 09:01:56;;;;;;;20.17;14.35;;;28.70;76.00;;;;;;6109215;28;83900;-66
2023/08/21 09:04:56;;;;;;;24.70;15.65;;;28.70;76.40;;;;;;6118778;28;83231;-65
2023/08/21 09:07:57;;;;;;;29.73;19.15;;;28.80;77.10;;;;;;6126539;28;83458;-72
2023/08/21 09:10:57;;;;;;;28.60;18.90;;;28.80;75.70;;;;;;6118236;28;83005;-75
2023/08/21 09:13:58;;;;;;;28.83;19.80;;;28.70;75.00;;;;;;6122295;28;86725;-71
2023/08/21 09:16:58;;;;;;;30.20;19.92;;;28.80;75.20;;;;;;6108238;28;89348;-63
2023/08/21 09:19:59;;;;;;;35.42;22.17;;;28.80;75.00;;;;;;6125043;28;83657;-65
2023/08/21 09:22:59;;;;;;;43.85;24.42;;;28.80;74.50;;;;;;6119424;28;84891;-63
2023/08/21 09:26:00;;;;;;;36.22;23.27;;;28.70;74.60;;;;;;6119805;28;83510;-65
2023/08/21 09:29:00;;;;;;;37.80;22.23;;;28.80;75.90;;;;;;6112504;28;85396;-69
2023/08/21 09:32:01;;;;;;;36.92;22.02;;;28.80;75.60;;;;;;6113550;28;83567;-65
2023/08/21 09:35:03;;;;;;;39.50;23.35;;;28.80;76.70;;;;;;6133093;28;83216;-66
2023/08/21 09:38:04;;;;;;;38.70;23.30;;;28.80;76.20;;;;;;6112628;28;84128;-70
2023/08/21 09:41:05;;;;;;;32.28;20.95;;;28.80;76.50;;;;;;6113394;28;83236;-70
2023/08/21 09:44:05;;;;;;;30.92;19.77;;;28.80;76.00;;;;;;6117653;28;83223;-69
2023/08/21 09:47:06;;;;;;;30.13;17.67;;;28.80;76.80;;;;;;6122151;28;83480;-71
2023/08/21 09:50:06;;;;;;;23.00;16.55;;;28.80;76.60;;;;;;6121591;28;83418;-70
2023/08/21 09:53:07;;;;;;;26.58;15.82;;;28.80;75.10;;;;;;6117987;28;83150;-67
2023/08/21 09:56:08;;;;;;;21.23;14.60;;;28.70;74.80;;;;;;6110694;28;84151;-68
2023/08/21 09:59:09;;;;;;;22.08;14.15;;;28.70;73.50;;;;;;6126991;28;83846;-71
2023/08/21 10:02:09;;;;;;;21.77;13.98;;;28.70;73.90;;;;;;6118996;28;83815;-69
2023/08/21 10:05:10;;;;;;;16.98;13.18;;;28.70;74.00;;;;;;6122433;28;83512;-72
2023/08/21 10:08:10;;;;;;;25.50;13.23;;;28.80;74.80;;;;;;6113076;28;83163;-71
2023/08/21 10:11:11;;;;;;;17.30;13.23;;;28.80;74.00;;;;;;6117645;28;84173;-64
2023/08/21 10:14:11;;;;;;;19.35;13.65;;;28.80;74.20;;;;;;6112426;28;82955;-63
2023/08/21 10:17:12;;;;;;;28.23;14.02;;;28.80;74.70;;;;;;6106882;28;83737;-61
2023/08/21 10:20:12;;;;;;;21.70;13.75;;;28.90;73.80;;;;;;6116076;28;83967;-64
2023/08/21 10:23:13;;;;;;;19.60;13.77;;;28.90;73.80;;;;;;6121531;28;84060;-64
2023/08/21 10:26:13;;;;;;;25.75;13.27;;;28.90;74.10;;;;;;6104830;28;84417;-67
2023/08/21 10:29:14;;;;;;;20.90;14.27;;;29.00;74.10;;;;;;6114401;28;83494;-65
2023/08/21 10:32:14;;;;;;;21.35;14.15;;;29.10;74.40;;;;;;6110250;28;83188;-70
2023/08/21 10:35:16;;;;;;;24.25;13.75;;;29.00;73.70;;;;;;6117529;28;83358;-66
2023/08/21 10:38:17;;;;;;;31.50;14.68;;;29.00;74.30;;;;;;6112223;28;84076;-65
2023/08/21 10:41:18;;;;;;;22.13;14.43;;;29.10;74.60;;;;;;6114436;28;85729;-64
2023/08/21 10:44:18;;;;;;;24.08;14.73;;;29.10;74.20;;;;;;6129676;28;84397;-65
2023/08/21 10:47:19;;;;;;;32.05;15.88;;;29.10;74.40;;;;;;6119801;28;83397;-65
2023/08/21 10:50:19;;;;;;;22.27;15.18;;;29.20;74.10;;;;;;6116509;28;83584;-66
2023/08/21 10:53:20;;;;;;;21.77;16.38;;;29.10;73.00;;;;;;6100613;28;84051;-62
2023/08/21 10:56:20;;;;;;;21.95;14.93;;;29.00;72.20;;;;;;6102607;28;84290;-66
2023/08/21 10:59:21;;;;;;;28.75;17.25;;;29.00;71.70;;;;;;6127405;28;83462;-66
2023/08/21 11:02:22;;;;;;;24.52;16.65;;;29.00;70.60;;;;;;6124993;28;83538;-62
2023/08/21 11:05:22;;;;;;;24.08;17.13;;;29.00;71.10;;;;;;6120705;28;86894;-59
2023/08/21 11:08:22;;;;;;;29.65;16.65;;;29.00;70.90;;;;;;6104177;28;83398;-60
2023/08/21 11:11:23;;;;;;;28.98;17.35;;;29.10;71.80;;;;;;6123712;28;83007;-57
2023/08/21 11:14:24;;;;;;;26.17;17.33;;;29.10;72.10;;;;;;6113563;28;83114;-58
2023/08/21 11:17:24;;;;;;;29.20;17.75;;;29.10;71.70;;;;;;6116739;28;82966;-58
2023/08/21 11:20:25;;;;;;;23.77;17.08;;;29.20;71.70;;;;;;6103415;28;83505;-59
2023/08/21 11:23:25;;;;;;;25.20;17.23;;;29.20;71.70;;;;;;6109117;28;84105;-68
2023/08/21 11:26:26;;;;;;;27.55;17.63;;;29.20;72.00;;;;;;6123461;28;83090;-64
2023/08/21 11:29:26;;;;;;;28.38;17.80;;;29.20;72.00;;;;;;6123472;28;83221;-65
2023/08/21 11:32:27;;;;;;;28.17;17.25;;;29.20;72.40;;;;;;6120277;28;83124;-63
2023/08/21 11:35:27;;;;;;;22.10;16.70;;;29.20;72.60;;;;;;6124491;28;86710;-63
2023/08/21 11:38:29;;;;;;;30.17;16.73;;;29.20;72.60;;;;;;6124671;28;83142;-63
2023/08/21 11:41:29;;;;;;;25.55;17.08;;;29.30;72.70;;;;;;6132458;28;84493;-62
2023/08/21 11:44:30;;;;;;;24.33;17.60;;;29.30;72.70;;;;;;6120085;28;83567;-62
2023/08/21 11:47:30;;;;;;;24.65;18.15;;;29.30;72.60;;;;;;6124929;28;84012;-63
2023/08/21 11:50:31;;;;;;;25.30;16.73;;;29.40;70.90;;;;;;6119627;28;83594;-65
2023/08/21 11:53:32;;;;;;;29.08;17.45;;;29.40;70.70;;;;;;6125069;28;83537;-65
2023/08/21 11:56:33;;;;;;;27.52;17.85;;;29.40;69.30;;;;;;6119087;28;83970;-65
2023/08/21 11:59:33;;;;;;;23.73;15.98;;;29.50;68.90;;;;;;6102483;28;83512;-59
2023/08/21 12:02:34;;;;;;;27.67;16.65;;;29.50;68.90;;;;;;6112027;28;84247;-60
2023/08/21 12:05:34;;;;;;;29.30;18.35;;;29.50;68.90;;;;;;6118427;28;85698;-59
2023/08/21 12:08:35;;;;;;;25.50;17.90;;;29.60;68.80;;;;;;6123886;28;83112;-59
2023/08/21 12:11:38;;;;;;;27.73;18.80;;;29.60;67.70;;;;;;6118807;28;85114;-59
2023/08/21 12:14:39;;;;;;;30.60;18.70;;;29.70;67.20;;;;;;6120470;28;83552;-59
2023/08/21 12:17:40;;;;;;;26.00;17.77;;;29.70;67.10;;;;;;6108189;28;84751;-58
2023/08/21 12:20:40;;;;;;;28.38;19.48;;;29.70;67.10;;;;;;6100607;28;83061;-61
2023/08/21 12:23:41;;;;;;;35.20;20.58;;;29.80;67.00;;;;;;6106042;28;83120;-61
2023/08/21 12:26:41;;;;;;;31.33;20.30;;;29.80;67.40;;;;;;6116008;28;83078;-61
2023/08/21 12:29:42;;;;;;;29.52;20.23;;;29.80;67.60;;;;;;6119454;28;84633;-64
2023/08/21 12:32:42;;;;;;;35.17;20.42;;;29.80;67.50;;;;;;6119231;28;85021;-61
2023/08/21 12:35:43;;;;;;;33.33;20.52;;;29.80;67.60;;;;;;6122632;28;83407;-62
2023/08/21 12:38:43;;;;;;;32.80;19.90;;;29.70;67.60;;;;;;6121325;28;83573;-71
2023/08/21 12:41:44;;;;;;;31.35;19.83;;;29.70;68.00;;;;;;6116262;28;82698;-71
2023/08/21 12:44:44;;;;;;;29.02;19.33;;;29.70;67.60;;;;;;6122473;28;82753;-70
2023/08/21 12:47:45;;;;;;;26.42;18.50;;;29.70;67.60;;;;;;6108249;28;83533;-71
2023/08/21 12:50:45;;;;;;;27.77;18.88;;;29.70;67.80;;;;;;6108586;28;83518;-67
2023/08/21 12:53:46;;;;;;;28.45;18.63;;;29.70;67.70;;;;;;6124591;28;83278;-69
2023/08/21 12:56:46;;;;;;;24.90;18.20;;;29.60;67.80;;;;;;6105739;28;83371;-69
2023/08/21 12:59:47;;;;;;;27.23;18.25;;;29.60;68.10;;;;;;6104263;28;83041;-68
2023/08/21 13:02:47;;;;;;;31.38;19.13;;;29.60;67.80;;;;;;6117647;28;84363;-67
2023/08/21 13:05:48;;;;;;;27.58;19.50;;;29.50;68.00;;;;;;6112386;28;83142;-66
2023/08/21 13:08:48;;;;;;;26.98;18.75;;;29.50;68.30;;;;;;6113856;28;84486;-64
2023/08/21 13:11:49;;;;;;;32.58;20.13;;;29.50;68.50;;;;;;6126224;28;83138;-74
2023/08/21 13:14:49;;;;;;;28.92;19.58;;;29.50;69.00;;;;;;6126583;28;83707;-65
2023/08/21 13:17:50;;;;;;;28.88;19.92;;;29.50;69.00;;;;;;6125895;28;84702;-65
2023/08/21 13:20:50;;;;;;;33.35;19.77;;;29.60;69.20;;;;;;6135512;28;84903;-65
2023/08/21 13:23:51;;;;;;;28.33;19.65;;;29.60;69.30;;;;;;6123185;28;83635;-67
2023/08/21 13:26:51;;;;;;;38.63;19.65;;;29.60;69.50;;;;;;6124218;28;85461;-67
2023/08/21 13:29:52;;;;;;;36.47;20.27;;;29.60;69.60;;;;;;6130029;28;84171;-66
2023/08/21 13:32:52;;;;;;;33.42;19.80;;;29.60;70.00;;;;;;6141182;28;83007;-67
2023/08/21 13:35:53;;;;;;;27.42;19.17;;;29.60;70.00;;;;;;6145365;28;83752;-65
2023/08/21 13:38:53;;;;;;;36.95;19.75;;;29.70;70.30;;;;;;6120878;28;86419;-65
2023/08/21 13:41:54;;;;;;;29.58;19.40;;;29.70;70.20;;;;;;6128191;28;84446;-65
2023/08/21 13:44:54;;;;;;;33.92;21.15;;;29.80;70.20;;;;;;6113444;28;83916;-68
2023/08/21 13:47:55;;;;;;;30.10;20.02;;;29.80;70.70;;;;;;6124988;28;84357;-65
2023/08/21 13:50:55;;;;;;;34.70;21.10;;;29.80;69.60;;;;;;6156325;28;83889;-73
2023/08/21 13:53:56;;;;;;;32.70;19.85;;;29.90;69.00;;;;;;6117971;28;84442;-74
2023/08/21 13:56:57;;;;;;;29.58;19.80;;;29.90;70.10;;;;;;6125077;28;83743;-73
2023/08/21 13:59:57;;;;;;;34.00;19.77;;;29.90;70.10;;;;;;6117118;28;83318;-70
2023/08/21 14:02:57;;;;;;;25.40;18.38;;;30.00;70.00;;;;;;6117337;28;82910;-74
2023/08/21 14:05:58;;;;;;;28.17;18.17;;;30.00;69.70;;;;;;6128318;28;84095;-72
2023/08/21 14:08:59;;;;;;;27.35;19.13;;;30.00;69.30;;;;;;6126247;28;83607;-66
2023/08/21 14:11:59;;;;;;;23.65;16.60;;;30.00;69.30;;;;;;6127806;28;83569;-64
2023/08/21 14:15:00;;;;;;;25.60;16.88;;;30.00;67.10;;;;;;6125607;28;84867;-65
2023/08/21 14:18:00;;;;;;;24.45;17.17;;;30.00;67.20;;;;;;6127913;28;86992;-64
2023/08/21 14:21:01;;;;;;;26.73;17.33;;;30.00;67.50;;;;;;6122803;28;83157;-65
2023/08/21 14:24:02;;;;;;;22.00;16.92;;;30.10;68.20;;;;;;6121009;28;83801;-65
2023/08/21 14:27:03;;;;;;;29.48;17.30;;;30.10;67.50;;;;;;6114666;28;83509;-70
2023/08/21 14:30:03;;;;;;;22.88;16.48;;;30.10;66.30;;;;;;6120006;28;82921;-70
2023/08/21 14:33:04;;;;;;;20.85;15.95;;;30.10;65.30;;;;;;6109960;28;83830;-72
2023/08/21 14:36:05;;;;;;;24.98;16.52;;;30.10;65.30;;;;;;6123454;28;83965;-66
2023/08/21 14:39:06;;;;;;;21.38;15.60;;;30.20;65.60;;;;;;6126103;28;83784;-66
2023/08/21 14:42:06;;;;;;;21.92;16.25;;;30.10;66.00;;;;;;6123460;28;83139;-68
2023/08/21 14:45:07;;;;;;;21.55;16.23;;;30.10;66.30;;;;;;6122130;28;83825;-62
2023/08/21 14:48:07;;;;;;;23.05;16.35;;;30.10;67.10;;;;;;6121733;28;86541;-67
2023/08/21 14:51:08;;;;;;;22.40;17.35;;;30.00;66.40;;;;;;6115211;28;83612;-69
2023/08/21 14:54:08;;;;;;;20.38;16.02;;;30.00;66.70;;;;;;6115932;28;83826;-73
2023/08/21 14:57:09;;;;;;;22.33;16.08;;;30.00;65.40;;;;;;6115768;28;83868;-72
2023/08/21 15:00:09;;;;;;;20.70;14.77;;;30.00;65.30;;;;;;6121497;28;83552;-69
2023/08/21 15:03:10;;;;;;;20.17;16.73;;;29.90;66.10;;;;;;6111027;28;83616;-63
2023/08/21 15:06:10;;;;;;;22.80;16.58;;;29.90;66.10;;;;;;6124664;28;87273;-55
2023/08/21 15:09:12;;;;;;;22.00;16.23;;;29.90;66.10;;;;;;6132088;28;86409;-57
2023/08/21 15:12:13;;;;;;;25.90;15.38;;;29.80;65.80;;;;;;6131195;28;88329;-58
2023/08/21 15:15:13;;;;;;;20.50;14.15;;;29.80;66.30;;;;;;6118375;28;84096;-58
2023/08/21 15:18:14;;;;;;;21.65;15.10;;;29.80;66.90;;;;;;6108793;28;87005;-59